Карточка аэропорта UWUU

Внимание!
Информация на этой странице в стадии наполнения.
Если вы не увидели какой-то информации, или заметили неточность - пожалуйста сообщите нам!
Спасибо!
Команда RU-STAFF
Название аэропортаУфа
Название аэропорта (англ.)Ufa
Превышение450 ft. (137.2 m.)
Координаты54°33.6', 55°52.2'
Высота перехода5000 ft
Эшелон переходаFL070
Коды ответчика6730-6731
Зона ОрВДСамара РПИ (UWWW)
Данные METARUWUU 310630Z 19005MPS 160V240 CAVOK M09/M13 Q1017 R14R/420546 NOSIG
Проноз погоды (TAF)UWUU 310445Z 3106/0106 17006G11MPS 9999 OVC030 TXM07/3110Z TNM12/0103Z TEMPO 3106/0106 19009G14MPS 6000 -SN DRSN OVC016
NOTAMshow/hide NOTAM
AWOS   TABLE

Информация о ВПП

ВПП Длина ВПП (м.) Покрытие Курс ВПП Частота ILS
14R3761Бетон138110.3
14L2516Асфальтобетон138 
32R2516Асфальтобетон318 
32L3761Бетон318108.7

Диспетчерские позиции

Позывной Наименование органа УВД Частота
UWUU_GNDУфа-Руление119.000
UWUU_TWRУфа-Старт120.900
UWUU_APPУфа-Подход126.000



Спутниковое изображение